createdAt,value
2023-05-14T00:00:50.442Z,83.57
2023-05-14T00:03:18.157Z,83.55
2023-05-14T00:05:45.994Z,83.54
2023-05-14T00:08:13.662Z,83.56
2023-05-14T00:10:41.510Z,83.57
2023-05-14T00:13:09.569Z,83.61
2023-05-14T00:15:37.542Z,83.61
2023-05-14T00:18:06.311Z,83.51
2023-05-14T00:20:34.076Z,83.51
2023-05-14T00:23:01.770Z,83.49
2023-05-14T00:25:29.819Z,83.42
2023-05-14T00:27:57.551Z,83.43
2023-05-14T00:30:25.642Z,83.39
2023-05-14T00:32:54.551Z,83.35
2023-05-14T00:35:22.476Z,83.31
2023-05-14T00:37:50.323Z,83.33
2023-05-14T00:40:19.655Z,83.46
2023-05-14T00:42:47.366Z,83.42
2023-05-14T00:45:15.049Z,83.35
2023-05-14T00:47:43.499Z,83.26
2023-05-14T00:50:13.459Z,83.23
2023-05-14T00:52:42.026Z,83.29
2023-05-14T00:55:11.970Z,83.25
2023-05-14T00:57:40.798Z,83.27
2023-05-14T01:00:09.262Z,83.27
2023-05-14T01:02:37.376Z,83.21
2023-05-14T01:05:06.217Z,83.25
2023-05-14T01:07:49.402Z,83.28
2023-05-14T01:10:41.876Z,83.35
2023-05-14T01:13:22.688Z,83.30
2023-05-14T01:15:50.708Z,83.27
2023-05-14T01:18:20.320Z,83.22
2023-05-14T01:20:53.761Z,83.24
2023-05-14T01:23:21.676Z,83.32
2023-05-14T01:25:49.558Z,83.31
2023-05-14T01:28:34.397Z,83.24
2023-05-14T01:31:09.753Z,83.30
2023-05-14T01:33:42.440Z,83.32
2023-05-14T01:36:11.049Z,83.32
2023-05-14T01:38:40.005Z,83.35
2023-05-14T01:41:10.742Z,83.37
2023-05-14T01:43:39.814Z,83.47
2023-05-14T01:46:09.921Z,83.57
2023-05-14T01:48:38.006Z,83.51
2023-05-14T01:51:05.984Z,83.48
2023-05-14T01:53:34.991Z,83.36
2023-05-14T01:56:03.880Z,83.32
2023-05-14T01:58:32.067Z,83.28
2023-05-14T02:00:59.757Z,83.32
2023-05-14T02:03:27.635Z,83.34
2023-05-14T02:05:55.492Z,83.48
2023-05-14T02:08:23.600Z,83.51
2023-05-14T02:10:51.418Z,83.51
2023-05-14T02:13:19.382Z,83.53
2023-05-14T02:15:47.305Z,83.58
2023-05-14T02:18:15.118Z,83.75
2023-05-14T02:20:42.845Z,83.85
2023-05-14T02:23:10.608Z,83.85
2023-05-14T02:25:41.171Z,83.73
2023-05-14T02:28:08.981Z,83.71
2023-05-14T02:30:37.120Z,83.62
2023-05-14T02:33:05.037Z,83.54
2023-05-14T02:35:32.833Z,83.49
2023-05-14T02:38:00.945Z,83.46
2023-05-14T02:40:29.176Z,83.40
2023-05-14T02:42:57.019Z,83.37
2023-05-14T02:45:24.854Z,83.32
2023-05-14T02:47:52.891Z,83.24
2023-05-14T02:50:20.745Z,83.18
2023-05-14T02:52:48.826Z,83.17
2023-05-14T02:55:16.665Z,83.24
2023-05-14T02:57:44.615Z,83.24
2023-05-14T03:00:13.149Z,83.15
2023-05-14T03:02:42.256Z,83.14
2023-05-14T03:05:10.900Z,83.08
2023-05-14T03:07:39.093Z,83.07
2023-05-14T03:10:07.857Z,83.08
2023-05-14T03:12:35.565Z,83.11
2023-05-14T03:15:04.130Z,83.10
2023-05-14T03:17:31.865Z,83.12
2023-05-14T03:19:59.631Z,83.26
2023-05-14T03:22:28.053Z,83.29
2023-05-14T03:24:55.798Z,83.36
2023-05-14T03:27:23.649Z,83.43
2023-05-14T03:29:51.374Z,83.37
2023-05-14T03:32:19.591Z,83.37
2023-05-14T03:34:47.711Z,83.34
2023-05-14T03:37:15.427Z,83.25
2023-05-14T03:39:43.347Z,83.22
2023-05-14T03:42:11.038Z,83.20
2023-05-14T03:44:38.887Z,83.22
2023-05-14T03:47:07.011Z,83.23
2023-05-14T03:49:35.504Z,83.23
2023-05-14T03:52:07.948Z,83.25
2023-05-14T03:54:36.091Z,83.20
2023-05-14T03:57:04.131Z,83.25
2023-05-14T03:59:31.880Z,83.32
2023-05-14T04:02:02.016Z,83.38
2023-05-14T04:04:29.833Z,83.38
2023-05-14T04:06:57.565Z,83.40
2023-05-14T04:09:25.495Z,83.42
2023-05-14T04:11:53.277Z,83.40
2023-05-14T04:14:20.967Z,83.42
2023-05-14T04:16:49.187Z,83.48
2023-05-14T04:19:17.155Z,83.43
2023-05-14T04:21:45.391Z,83.29
2023-05-14T04:24:13.168Z,83.18
2023-05-14T04:26:40.859Z,83.09
2023-05-14T04:29:08.656Z,82.77
2023-05-14T04:31:36.578Z,82.74
2023-05-14T04:34:04.299Z,82.75
2023-05-14T04:36:32.479Z,82.73
2023-05-14T04:39:00.460Z,82.53
2023-05-14T04:41:28.440Z,82.28
2023-05-14T04:44:01.331Z,82.36
2023-05-14T04:46:29.344Z,82.23
2023-05-14T04:48:57.793Z,82.06
2023-05-14T04:51:26.393Z,82.33
2023-05-14T04:53:54.082Z,82.30
2023-05-14T04:56:22.054Z,82.22
2023-05-14T04:58:49.901Z,82.23
2023-05-14T05:01:17.692Z,82.21
2023-05-14T05:03:45.505Z,82.19
2023-05-14T05:06:13.354Z,82.24
2023-05-14T05:08:42.712Z,82.12
2023-05-14T05:11:10.395Z,81.86
2023-05-14T05:13:38.032Z,81.70
2023-05-14T05:16:06.486Z,81.36
2023-05-14T05:18:34.370Z,81.45
2023-05-14T05:21:02.118Z,81.41
2023-05-14T05:23:29.815Z,81.23
2023-05-14T05:25:57.544Z,81.20
2023-05-14T05:28:25.440Z,81.22
2023-05-14T05:30:53.425Z,81.22
2023-05-14T05:33:21.220Z,81.39
2023-05-14T05:35:50.164Z,81.52
2023-05-14T05:38:18.453Z,81.78
2023-05-14T05:40:46.159Z,81.68
2023-05-14T05:43:15.039Z,81.44
2023-05-14T05:45:42.764Z,81.48
2023-05-14T05:48:10.592Z,81.51
2023-05-14T05:50:38.711Z,81.45
2023-05-14T05:53:09.031Z,81.80
2023-05-14T05:55:37.406Z,81.86
2023-05-14T05:58:05.106Z,81.82
2023-05-14T06:00:33.307Z,81.61
2023-05-14T06:03:01.254Z,81.23
2023-05-14T06:05:29.341Z,80.80
2023-05-14T06:07:57.081Z,80.94
2023-05-14T06:10:25.125Z,80.77
2023-05-14T06:12:53.140Z,80.42
2023-05-14T06:15:21.676Z,80.31
2023-05-14T06:17:49.607Z,80.16
2023-05-14T06:20:17.560Z,80.14
2023-05-14T06:22:45.702Z,80.48
2023-05-14T06:25:13.448Z,80.95
2023-05-14T06:27:41.197Z,80.80
2023-05-14T06:30:09.625Z,79.74
2023-05-14T06:32:37.466Z,79.16
2023-05-14T06:35:06.473Z,79.75
2023-05-14T06:37:34.219Z,80.19
2023-05-14T06:40:02.605Z,80.16
2023-05-14T06:42:30.483Z,79.62
2023-05-14T06:44:59.305Z,80.52
2023-05-14T06:47:27.187Z,80.35
2023-05-14T06:49:56.036Z,80.36
2023-05-14T06:52:23.722Z,80.12
2023-05-14T06:54:51.434Z,79.71
2023-05-14T06:57:19.276Z,79.37
2023-05-14T06:59:47.048Z,79.74
2023-05-14T07:02:14.718Z,80.16
2023-05-14T07:04:42.504Z,79.73
2023-05-14T07:07:13.688Z,80.25
2023-05-14T07:09:42.635Z,79.86
2023-05-14T07:12:10.788Z,79.28
2023-05-14T07:14:38.909Z,79.15
2023-05-14T07:17:07.055Z,78.43
2023-05-14T07:19:34.801Z,78.47
2023-05-14T07:22:02.583Z,78.70
2023-05-14T07:24:30.415Z,78.66
2023-05-14T07:26:58.625Z,76.97
2023-05-14T07:29:26.380Z,77.19
2023-05-14T07:31:54.302Z,77.50
2023-05-14T07:34:22.015Z,77.32
2023-05-14T07:36:49.798Z,77.33
2023-05-14T07:39:17.552Z,76.14
2023-05-14T07:41:45.315Z,75.95
2023-05-14T07:44:13.314Z,76.38
2023-05-14T07:46:41.130Z,76.46
2023-05-14T07:49:09.156Z,74.60
2023-05-14T07:51:37.291Z,75.73
2023-05-14T07:54:05.757Z,73.21
2023-05-14T07:56:33.729Z,73.84
2023-05-14T07:59:01.548Z,73.16
2023-05-14T08:01:29.199Z,72.62
2023-05-14T08:03:57.155Z,74.23
2023-05-14T08:06:27.828Z,73.49
2023-05-14T08:08:55.533Z,73.38
2023-05-14T08:11:23.435Z,75.56
2023-05-14T08:13:51.213Z,74.90
2023-05-14T08:16:19.085Z,73.78
2023-05-14T08:18:47.201Z,73.61
2023-05-14T08:21:14.969Z,72.58
2023-05-14T08:23:42.624Z,72.81
2023-05-14T08:26:10.600Z,72.97
2023-05-14T08:28:38.413Z,73.22
2023-05-14T08:31:06.278Z,72.31
2023-05-14T08:33:34.048Z,72.61
2023-05-14T08:36:01.824Z,71.98
2023-05-14T08:38:29.817Z,71.56
2023-05-14T08:40:59.845Z,70.73
2023-05-14T08:43:44.397Z,70.18
2023-05-14T08:46:17.563Z,71.34
2023-05-14T08:48:54.889Z,72.05
2023-05-14T08:51:23.200Z,72.27
2023-05-14T08:53:51.328Z,71.52
2023-05-14T08:56:20.055Z,71.71
2023-05-14T08:58:47.855Z,72.11
2023-05-14T09:01:15.529Z,71.14
2023-05-14T09:03:43.799Z,71.94
2023-05-14T09:06:13.146Z,70.21
2023-05-14T09:08:41.082Z,69.83
2023-05-14T09:11:08.936Z,69.42
2023-05-14T09:13:39.514Z,69.26
2023-05-14T09:16:07.926Z,68.24
2023-05-14T09:18:37.734Z,67.45
2023-05-14T09:21:05.919Z,68.66
2023-05-14T09:23:34.753Z,69.48
2023-05-14T09:26:09.050Z,68.54
2023-05-14T09:28:40.204Z,68.83
2023-05-14T09:31:09.769Z,67.08
2023-05-14T09:33:37.813Z,62.94
2023-05-14T09:36:05.846Z,64.11
2023-05-14T09:38:34.449Z,63.12
2023-05-14T09:41:02.204Z,62.10
2023-05-14T09:43:29.967Z,63.79
2023-05-14T09:45:57.707Z,64.60
2023-05-14T09:48:26.397Z,63.31
2023-05-14T09:50:54.213Z,60.95
2023-05-14T09:53:22.159Z,62.20
2023-05-14T09:55:50.148Z,62.48
2023-05-14T09:58:17.853Z,61.55
2023-05-14T10:00:47.856Z,60.99
2023-05-14T10:03:19.705Z,59.64
2023-05-14T10:05:51.251Z,59.11
2023-05-14T10:08:34.260Z,63.04
2023-05-14T10:11:08.444Z,61.27
2023-05-14T10:13:46.566Z,61.09
2023-05-14T10:16:23.613Z,60.25
2023-05-14T10:18:57.576Z,60.88
2023-05-14T10:21:30.664Z,61.90
2023-05-14T10:23:59.080Z,60.65
2023-05-14T10:26:28.064Z,59.97
2023-05-14T10:28:56.578Z,58.08
2023-05-14T10:31:44.411Z,59.84
2023-05-14T10:34:38.769Z,57.67
2023-05-14T10:37:10.157Z,59.48
2023-05-14T10:39:45.830Z,57.38
2023-05-14T10:42:29.202Z,55.90
2023-05-14T10:44:59.756Z,57.78
2023-05-14T10:47:28.766Z,53.98
2023-05-14T10:49:58.892Z,55.82
2023-05-14T10:52:27.217Z,56.27
2023-05-14T10:55:02.649Z,53.09
2023-05-14T10:57:32.499Z,53.24
2023-05-14T11:00:03.041Z,52.73
2023-05-14T11:02:39.328Z,54.45
2023-05-14T11:05:14.407Z,52.19
2023-05-14T11:07:48.037Z,53.42
2023-05-14T11:10:18.624Z,53.33
2023-05-14T11:12:52.321Z,51.99
2023-05-14T11:15:23.170Z,55.13
2023-05-14T11:17:53.089Z,53.56
2023-05-14T11:20:22.381Z,53.72
2023-05-14T11:22:51.905Z,53.77
2023-05-14T11:25:20.602Z,54.73
2023-05-14T11:27:50.099Z,52.54
2023-05-14T11:30:19.987Z,49.91
2023-05-14T11:32:50.469Z,52.43
2023-05-14T11:35:19.195Z,52.08
2023-05-14T11:37:55.591Z,49.97
2023-05-14T11:40:23.662Z,49.23
2023-05-14T11:42:54.943Z,50.53
2023-05-14T11:45:27.371Z,49.78
2023-05-14T11:47:55.606Z,46.10
2023-05-14T11:50:24.058Z,46.02
2023-05-14T11:52:57.058Z,44.12
2023-05-14T11:55:25.304Z,45.39
2023-05-14T11:57:55.628Z,43.21
2023-05-14T12:00:24.755Z,42.93
2023-05-14T12:02:53.254Z,47.33
2023-05-14T12:05:21.962Z,48.89
2023-05-14T12:07:49.976Z,47.98
2023-05-14T12:10:17.963Z,49.89
2023-05-14T12:12:49.721Z,45.80
2023-05-14T12:15:18.383Z,45.77
2023-05-14T12:17:52.381Z,45.78
2023-05-14T12:20:20.212Z,41.35
2023-05-14T12:22:48.349Z,41.32
2023-05-14T12:25:16.127Z,44.61
2023-05-14T12:27:49.127Z,44.88
2023-05-14T12:30:27.555Z,44.68
2023-05-14T12:32:55.860Z,39.08
2023-05-14T12:35:24.081Z,42.84
2023-05-14T12:37:52.115Z,38.81
2023-05-14T12:40:20.261Z,41.73
2023-05-14T12:42:48.502Z,42.41
2023-05-14T12:45:16.381Z,46.87
2023-05-14T12:47:44.060Z,47.47
2023-05-14T12:50:12.141Z,42.87
2023-05-14T12:52:40.250Z,49.14
2023-05-14T12:55:09.870Z,50.85
2023-05-14T12:57:39.449Z,51.79
2023-05-14T13:00:13.019Z,53.08
2023-05-14T13:02:49.359Z,52.26
2023-05-14T13:05:17.333Z,49.64
2023-05-14T13:07:45.111Z,52.07
2023-05-14T13:10:13.406Z,45.94
2023-05-14T13:12:41.502Z,41.93
2023-05-14T13:15:09.788Z,42.10
2023-05-14T13:17:37.706Z,42.95
2023-05-14T13:20:06.801Z,42.74
2023-05-14T13:22:34.513Z,44.33
2023-05-14T13:25:03.399Z,39.91
2023-05-14T13:27:31.144Z,37.78
2023-05-14T13:29:59.545Z,39.70
2023-05-14T13:32:27.451Z,39.41
2023-05-14T13:34:55.272Z,40.29
2023-05-14T13:37:23.107Z,39.93
2023-05-14T13:39:51.497Z,36.79
2023-05-14T13:42:19.600Z,35.74
2023-05-14T13:44:47.308Z,36.57
2023-05-14T13:47:15.061Z,32.57
2023-05-14T13:49:43.042Z,30.97
2023-05-14T13:52:10.812Z,31.56
2023-05-14T13:54:38.537Z,34.48
2023-05-14T13:57:06.897Z,35.62
2023-05-14T13:59:34.964Z,35.90
2023-05-14T14:02:03.205Z,39.62
2023-05-14T14:04:31.116Z,41.01
2023-05-14T14:06:58.943Z,39.05
2023-05-14T14:09:26.765Z,42.86
2023-05-14T14:11:54.673Z,43.64
2023-05-14T14:14:22.388Z,45.83
2023-05-14T14:16:50.088Z,46.68
2023-05-14T14:19:18.629Z,45.59
2023-05-14T14:21:46.858Z,44.93
2023-05-14T14:24:14.607Z,43.92
2023-05-14T14:26:42.267Z,50.40
2023-05-14T14:29:10.099Z,48.55
2023-05-14T14:31:38.409Z,47.79
2023-05-14T14:34:09.350Z,45.44
2023-05-14T14:36:37.491Z,46.72
2023-05-14T14:39:07.798Z,44.35
2023-05-14T14:41:36.080Z,46.51
2023-05-14T14:44:03.970Z,45.35
2023-05-14T14:46:32.709Z,42.22
2023-05-14T14:49:00.549Z,43.30
2023-05-14T14:51:30.317Z,45.18
2023-05-14T14:53:58.119Z,44.44
2023-05-14T14:56:28.238Z,51.49
2023-05-14T14:58:55.949Z,44.47
2023-05-14T15:01:23.699Z,51.05
2023-05-14T15:03:51.596Z,46.74
2023-05-14T15:06:19.363Z,46.04
2023-05-14T15:08:47.060Z,47.32
2023-05-14T15:11:15.486Z,46.69
2023-05-14T15:13:43.314Z,48.42
2023-05-14T15:16:12.525Z,50.01
2023-05-14T15:18:40.960Z,48.92
2023-05-14T15:21:08.741Z,48.22
2023-05-14T15:23:39.704Z,48.60
2023-05-14T15:26:10.876Z,51.65
2023-05-14T15:28:38.625Z,52.43
2023-05-14T15:31:07.489Z,49.87
2023-05-14T15:33:36.135Z,46.88
2023-05-14T15:36:03.983Z,47.97
2023-05-14T15:38:31.792Z,46.23
2023-05-14T15:40:59.735Z,43.49
2023-05-14T15:43:27.414Z,42.75
2023-05-14T15:45:55.175Z,47.21
2023-05-14T15:48:23.099Z,44.65
2023-05-14T15:50:51.700Z,45.96
2023-05-14T15:53:19.554Z,44.41
2023-05-14T15:55:49.152Z,46.14
2023-05-14T15:58:16.848Z,43.45
2023-05-14T16:00:44.478Z,44.68
2023-05-14T16:03:12.747Z,44.16
2023-05-14T16:05:42.683Z,42.95
2023-05-14T16:08:10.425Z,41.50
2023-05-14T16:10:38.171Z,43.40
2023-05-14T16:13:06.168Z,45.87
2023-05-14T16:15:33.962Z,44.65
2023-05-14T16:18:01.828Z,44.07
2023-05-14T16:20:29.508Z,44.10
2023-05-14T16:22:57.215Z,42.74
2023-05-14T16:25:25.176Z,44.18
2023-05-14T16:27:53.011Z,45.97
2023-05-14T16:30:20.706Z,46.18
2023-05-14T16:32:49.566Z,43.91
2023-05-14T16:35:17.501Z,44.09
2023-05-14T16:37:45.439Z,44.75
2023-05-14T16:40:13.771Z,43.87
2023-05-14T16:42:41.574Z,43.44
2023-05-14T16:45:09.873Z,43.04
2023-05-14T16:47:37.760Z,44.03
2023-05-14T16:50:05.983Z,45.69
2023-05-14T16:52:34.338Z,45.16
2023-05-14T16:55:02.108Z,42.55
2023-05-14T16:57:29.945Z,45.01
2023-05-14T16:59:57.676Z,43.91
2023-05-14T17:02:25.689Z,43.58
2023-05-14T17:04:55.336Z,43.35
2023-05-14T17:07:23.207Z,44.83
2023-05-14T17:09:50.875Z,42.43
2023-05-14T17:12:18.581Z,42.89
2023-05-14T17:14:46.201Z,43.87
2023-05-14T17:17:13.885Z,45.90
2023-05-14T17:19:42.398Z,45.59
2023-05-14T17:22:10.953Z,44.56
2023-05-14T17:24:39.244Z,43.39
2023-05-14T17:27:07.522Z,43.39
2023-05-14T17:29:36.554Z,44.69
2023-05-14T17:32:05.055Z,43.32
2023-05-14T17:34:33.552Z,42.85
2023-05-14T17:37:01.247Z,42.80
2023-05-14T17:39:29.203Z,45.19
2023-05-14T17:41:56.957Z,44.70
2023-05-14T17:44:24.649Z,45.45
2023-05-14T17:46:52.402Z,45.64
2023-05-14T17:49:20.333Z,45.74
2023-05-14T17:51:48.138Z,48.48
2023-05-14T17:54:16.269Z,48.98
2023-05-14T17:56:44.327Z,48.03
2023-05-14T17:59:13.048Z,48.24
2023-05-14T18:01:41.366Z,48.64
2023-05-14T18:04:09.150Z,49.16
2023-05-14T18:06:37.123Z,49.82
2023-05-14T18:09:04.960Z,50.25
2023-05-14T18:11:34.040Z,51.23
2023-05-14T18:14:02.291Z,50.24
2023-05-14T18:16:30.690Z,52.68
2023-05-14T18:19:00.405Z,52.94
2023-05-14T18:21:28.288Z,52.30
2023-05-14T18:23:56.279Z,51.55
2023-05-14T18:26:24.172Z,52.75
2023-05-14T18:28:52.718Z,52.66
2023-05-14T18:31:20.523Z,53.12
2023-05-14T18:33:48.477Z,53.30
2023-05-14T18:36:17.631Z,55.49
2023-05-14T18:38:45.448Z,53.74
2023-05-14T18:41:13.179Z,54.99
2023-05-14T18:43:41.190Z,54.75
2023-05-14T18:46:09.033Z,55.15
2023-05-14T18:48:37.216Z,55.11
2023-05-14T18:51:05.907Z,55.99
2023-05-14T18:53:33.837Z,56.48
2023-05-14T18:56:01.676Z,56.87
2023-05-14T18:58:29.618Z,56.43
2023-05-14T19:00:59.096Z,57.91
2023-05-14T19:03:27.155Z,57.51
2023-05-14T19:05:55.351Z,56.91
2023-05-14T19:08:23.219Z,57.49
2023-05-14T19:10:51.276Z,57.54
2023-05-14T19:13:18.971Z,57.53
2023-05-14T19:15:47.016Z,57.64
2023-05-14T19:18:14.921Z,58.27
2023-05-14T19:20:42.775Z,59.01
2023-05-14T19:23:10.649Z,58.67
2023-05-14T19:25:38.522Z,57.68
2023-05-14T19:28:09.970Z,58.59
2023-05-14T19:30:38.452Z,58.55
2023-05-14T19:33:06.395Z,60.00
2023-05-14T19:35:34.467Z,60.44
2023-05-14T19:38:02.231Z,61.92
2023-05-14T19:40:29.957Z,60.47
2023-05-14T19:42:57.926Z,60.22
2023-05-14T19:45:26.014Z,61.09
2023-05-14T19:47:54.183Z,62.15
2023-05-14T19:50:21.859Z,62.74
2023-05-14T19:52:49.710Z,60.95
2023-05-14T19:55:20.773Z,60.35
2023-05-14T19:57:48.372Z,61.85
2023-05-14T20:00:19.032Z,62.64
2023-05-14T20:02:48.055Z,62.36
2023-05-14T20:05:16.864Z,62.16
2023-05-14T20:07:45.032Z,62.57
2023-05-14T20:10:14.125Z,63.17
2023-05-14T20:12:41.865Z,63.80
2023-05-14T20:15:09.965Z,64.36
2023-05-14T20:17:39.610Z,64.42
2023-05-14T20:20:10.026Z,64.61
2023-05-14T20:22:38.357Z,63.68
2023-05-14T20:25:07.171Z,64.12
2023-05-14T20:27:35.281Z,64.22
2023-05-14T20:30:03.840Z,64.56
2023-05-14T20:32:31.666Z,64.95
2023-05-14T20:35:02.273Z,65.01
2023-05-14T20:37:31.357Z,65.23
2023-05-14T20:40:00.945Z,66.20
2023-05-14T20:42:29.590Z,67.34
2023-05-14T20:44:58.620Z,67.98
2023-05-14T20:47:28.957Z,67.63
2023-05-14T20:49:56.721Z,67.88
2023-05-14T20:52:24.432Z,68.13
2023-05-14T20:54:52.793Z,68.05
2023-05-14T20:57:20.693Z,68.22
2023-05-14T20:59:49.039Z,68.04
2023-05-14T21:02:17.697Z,68.79
2023-05-14T21:04:46.392Z,68.84
2023-05-14T21:07:14.291Z,68.92
2023-05-14T21:09:42.316Z,69.10
2023-05-14T21:12:10.525Z,69.23
2023-05-14T21:14:38.534Z,69.88
2023-05-14T21:17:06.840Z,70.21
2023-05-14T21:19:34.599Z,70.47
2023-05-14T21:22:02.910Z,70.73
2023-05-14T21:24:30.626Z,71.18
2023-05-14T21:26:58.605Z,71.25
2023-05-14T21:29:26.294Z,71.58
2023-05-14T21:31:54.414Z,72.20
2023-05-14T21:34:22.214Z,72.64
2023-05-14T21:36:50.147Z,72.85
2023-05-14T21:39:17.906Z,73.17
2023-05-14T21:41:45.782Z,73.30
2023-05-14T21:44:13.557Z,73.46
2023-05-14T21:46:41.422Z,73.90
2023-05-14T21:49:09.119Z,74.29
2023-05-14T21:51:37.194Z,74.49
2023-05-14T21:54:05.189Z,74.57
2023-05-14T21:56:34.855Z,74.68
2023-05-14T21:59:03.083Z,75.28
2023-05-14T22:01:32.586Z,75.41
2023-05-14T22:04:01.520Z,75.68
2023-05-14T22:06:29.507Z,75.91
2023-05-14T22:08:57.333Z,76.16
2023-05-14T22:11:25.034Z,76.32
2023-05-14T22:13:52.801Z,76.41
2023-05-14T22:16:22.391Z,76.55
2023-05-14T22:18:50.184Z,76.76
2023-05-14T22:21:17.993Z,76.96
2023-05-14T22:23:45.809Z,77.42
2023-05-14T22:26:13.867Z,77.49
2023-05-14T22:28:43.142Z,77.53
2023-05-14T22:31:11.627Z,77.55
2023-05-14T22:33:39.485Z,77.69
2023-05-14T22:36:07.638Z,77.90
2023-05-14T22:38:37.305Z,78.21
2023-05-14T22:41:05.123Z,78.52
2023-05-14T22:43:32.847Z,78.59
2023-05-14T22:46:00.764Z,78.89
2023-05-14T22:48:28.462Z,78.97
2023-05-14T22:50:56.356Z,79.12
2023-05-14T22:53:25.139Z,79.17
2023-05-14T22:55:53.434Z,79.48
2023-05-14T22:58:21.045Z,79.82
2023-05-14T23:00:48.953Z,80.42
2023-05-14T23:03:16.974Z,80.53
2023-05-14T23:05:44.655Z,80.57
2023-05-14T23:08:12.493Z,80.70
2023-05-14T23:10:40.428Z,80.61
2023-05-14T23:13:08.185Z,80.64
2023-05-14T23:15:36.030Z,80.53
2023-05-14T23:18:03.978Z,80.44
2023-05-14T23:20:31.628Z,80.19
2023-05-14T23:22:59.356Z,80.05
2023-05-14T23:25:27.160Z,80.06
2023-05-14T23:27:55.026Z,79.53
2023-05-14T23:30:22.825Z,79.42
2023-05-14T23:32:50.783Z,79.26
2023-05-14T23:35:18.934Z,79.32
2023-05-14T23:37:49.496Z,79.24
2023-05-14T23:40:17.712Z,78.63
2023-05-14T23:42:45.425Z,78.51
2023-05-14T23:45:13.980Z,78.67
2023-05-14T23:47:42.747Z,78.79
2023-05-14T23:50:10.853Z,78.70
2023-05-14T23:52:39.164Z,78.79
2023-05-14T23:55:07.349Z,78.69
2023-05-14T23:57:35.890Z,78.68
